sensor_id;sensor_type;location;lat;lon;timestamp;pressure;altitude;pressure_sealevel;temperature;humidity
11750;BME280;5932;42.656;23.236;2022-08-07T00:01:38;93445.66;;;22.47;64.57
11750;BME280;5932;42.656;23.236;2022-08-07T00:04:05;93434.84;;;22.44;63.82
11750;BME280;5932;42.656;23.236;2022-08-07T00:06:33;93436.84;;;22.43;63.90
11750;BME280;5932;42.656;23.236;2022-08-07T00:09:00;93438.59;;;22.41;63.95
11750;BME280;5932;42.656;23.236;2022-08-07T00:11:27;93437.53;;;22.33;63.79
11750;BME280;5932;42.656;23.236;2022-08-07T00:13:54;93440.56;;;22.35;63.78
11750;BME280;5932;42.656;23.236;2022-08-07T00:16:21;93444.28;;;22.32;64.33
11750;BME280;5932;42.656;23.236;2022-08-07T00:18:49;93436.47;;;22.25;64.51
11750;BME280;5932;42.656;23.236;2022-08-07T00:21:16;93441.47;;;22.21;64.98
11750;BME280;5932;42.656;23.236;2022-08-07T00:23:42;93441.72;;;22.23;65.55
11750;BME280;5932;42.656;23.236;2022-08-07T00:26:10;93413.97;;;22.00;65.48
11750;BME280;5932;42.656;23.236;2022-08-07T00:28:37;93443.66;;;22.11;65.65
11750;BME280;5932;42.656;23.236;2022-08-07T00:31:07;93437.88;;;22.09;65.71
11750;BME280;5932;42.656;23.236;2022-08-07T00:33:34;93442.56;;;21.97;65.69
11750;BME280;5932;42.656;23.236;2022-08-07T00:36:04;93449.81;;;21.95;65.98
11750;BME280;5932;42.656;23.236;2022-08-07T00:38:32;93440.31;;;21.96;67.20
11750;BME280;5932;42.656;23.236;2022-08-07T00:41:01;93444.78;;;21.93;67.43
11750;BME280;5932;42.656;23.236;2022-08-07T00:43:28;93446.50;;;21.91;67.69
11750;BME280;5932;42.656;23.236;2022-08-07T00:45:55;93442.47;;;21.86;67.84
11750;BME280;5932;42.656;23.236;2022-08-07T00:48:22;93445.97;;;21.87;67.60
11750;BME280;5932;42.656;23.236;2022-08-07T00:50:49;93449.13;;;21.74;67.94
11750;BME280;5932;42.656;23.236;2022-08-07T00:53:17;93443.28;;;21.67;68.27
11750;BME280;5932;42.656;23.236;2022-08-07T00:55:44;93445.28;;;21.66;69.37
11750;BME280;5932;42.656;23.236;2022-08-07T00:58:11;93447.75;;;21.64;69.87
11750;BME280;5932;42.656;23.236;2022-08-07T01:00:38;93448.69;;;21.56;69.91
11750;BME280;5932;42.656;23.236;2022-08-07T01:03:05;93445.44;;;21.57;69.85
11750;BME280;5932;42.656;23.236;2022-08-07T01:05:32;93449.16;;;21.54;70.14
11750;BME280;5932;42.656;23.236;2022-08-07T01:07:59;93439.91;;;21.57;70.72
11750;BME280;5932;42.656;23.236;2022-08-07T01:10:27;93440.91;;;21.54;70.39
11750;BME280;5932;42.656;23.236;2022-08-07T01:12:54;93443.66;;;21.54;70.14
11750;BME280;5932;42.656;23.236;2022-08-07T01:15:22;93439.50;;;21.39;70.19
11750;BME280;5932;42.656;23.236;2022-08-07T01:17:50;93434.44;;;21.32;70.57
11750;BME280;5932;42.656;23.236;2022-08-07T01:20:21;93436.50;;;21.16;70.93
11750;BME280;5932;42.656;23.236;2022-08-07T01:22:54;93444.44;;;21.09;70.97
11750;BME280;5932;42.656;23.236;2022-08-07T01:25:21;93438.44;;;21.10;71.63
11750;BME280;5932;42.656;23.236;2022-08-07T01:27:48;93441.28;;;21.16;72.35
11750;BME280;5932;42.656;23.236;2022-08-07T01:30:16;93449.09;;;21.23;72.17
11750;BME280;5932;42.656;23.236;2022-08-07T01:32:43;93445.31;;;21.20;72.61
11750;BME280;5932;42.656;23.236;2022-08-07T01:35:10;93446.50;;;21.14;72.42
11750;BME280;5932;42.656;23.236;2022-08-07T01:37:37;93450.50;;;21.13;72.59
11750;BME280;5932;42.656;23.236;2022-08-07T01:40:07;93453.75;;;21.11;71.84
11750;BME280;5932;42.656;23.236;2022-08-07T01:42:35;93459.25;;;21.11;71.74
11750;BME280;5932;42.656;23.236;2022-08-07T01:45:03;93459.97;;;21.06;72.29
11750;BME280;5932;42.656;23.236;2022-08-07T01:47:30;93460.34;;;21.19;72.30
11750;BME280;5932;42.656;23.236;2022-08-07T01:49:57;93470.31;;;21.17;72.18
11750;BME280;5932;42.656;23.236;2022-08-07T01:52:25;93467.72;;;21.08;72.22
11750;BME280;5932;42.656;23.236;2022-08-07T01:54:54;93472.03;;;21.14;72.85
11750;BME280;5932;42.656;23.236;2022-08-07T01:57:27;93481.84;;;21.15;72.82
11750;BME280;5932;42.656;23.236;2022-08-07T02:00:00;93485.81;;;21.14;72.68
11750;BME280;5932;42.656;23.236;2022-08-07T02:02:31;93511.16;;;21.18;72.66
11750;BME280;5932;42.656;23.236;2022-08-07T02:05:03;93526.78;;;21.07;73.32
11750;BME280;5932;42.656;23.236;2022-08-07T02:07:34;93541.66;;;21.15;73.06
11750;BME280;5932;42.656;23.236;2022-08-07T02:10:04;93567.28;;;21.21;73.03
11750;BME280;5932;42.656;23.236;2022-08-07T02:12:37;93566.88;;;21.28;71.94
11750;BME280;5932;42.656;23.236;2022-08-07T02:15:06;93564.94;;;21.34;71.83
11750;BME280;5932;42.656;23.236;2022-08-07T02:17:34;93576.53;;;21.38;71.19
11750;BME280;5932;42.656;23.236;2022-08-07T02:20:04;93572.09;;;21.46;71.91
11750;BME280;5932;42.656;23.236;2022-08-07T02:22:32;93567.50;;;21.38;73.51
11750;BME280;5932;42.656;23.236;2022-08-07T02:25:01;93571.16;;;21.49;77.21
11750;BME280;5932;42.656;23.236;2022-08-07T02:27:32;93567.16;;;21.50;76.01
11750;BME280;5932;42.656;23.236;2022-08-07T02:30:00;93565.72;;;21.55;78.43
11750;BME280;5932;42.656;23.236;2022-08-07T02:32:27;93558.19;;;21.55;78.23
11750;BME280;5932;42.656;23.236;2022-08-07T02:34:55;93542.19;;;21.59;79.05
11750;BME280;5932;42.656;23.236;2022-08-07T02:37:23;93524.47;;;21.66;78.45
11750;BME280;5932;42.656;23.236;2022-08-07T02:39:52;93504.22;;;21.69;80.08
11750;BME280;5932;42.656;23.236;2022-08-07T02:42:20;93482.97;;;21.49;82.47
11750;BME280;5932;42.656;23.236;2022-08-07T02:44:50;93472.19;;;21.25;82.62
11750;BME280;5932;42.656;23.236;2022-08-07T02:47:18;93457.44;;;21.28;84.44
11750;BME280;5932;42.656;23.236;2022-08-07T02:49:45;93457.91;;;21.27;84.53
11750;BME280;5932;42.656;23.236;2022-08-07T02:52:16;93461.19;;;21.05;84.44
11750;BME280;5932;42.656;23.236;2022-08-07T02:54:45;93466.09;;;20.81;86.51
11750;BME280;5932;42.656;23.236;2022-08-07T02:57:15;93472.09;;;20.60;87.77
11750;BME280;5932;42.656;23.236;2022-08-07T02:59:45;93476.22;;;20.50;89.08
11750;BME280;5932;42.656;23.236;2022-08-07T03:02:16;93472.09;;;20.60;90.24
11750;BME280;5932;42.656;23.236;2022-08-07T03:04:44;93473.47;;;20.70;90.95
11750;BME280;5932;42.656;23.236;2022-08-07T03:07:12;93478.03;;;20.73;91.09
11750;BME280;5932;42.656;23.236;2022-08-07T03:09:40;93468.13;;;20.81;91.54
11750;BME280;5932;42.656;23.236;2022-08-07T03:12:08;93447.81;;;20.78;89.98
11750;BME280;5932;42.656;23.236;2022-08-07T03:14:36;93443.53;;;20.97;90.80
11750;BME280;5932;42.656;23.236;2022-08-07T03:17:04;93447.63;;;21.02;90.65
11750;BME280;5932;42.656;23.236;2022-08-07T03:19:33;93447.81;;;20.78;93.53
11750;BME280;5932;42.656;23.236;2022-08-07T03:22:02;93454.75;;;20.54;95.40
11750;BME280;5932;42.656;23.236;2022-08-07T03:24:29;93441.59;;;20.43;94.86
11750;BME280;5932;42.656;23.236;2022-08-07T03:27:00;93439.47;;;20.53;96.27
11750;BME280;5932;42.656;23.236;2022-08-07T03:29:30;93449.75;;;20.72;96.29
11750;BME280;5932;42.656;23.236;2022-08-07T03:32:00;93450.78;;;20.75;95.98
11750;BME280;5932;42.656;23.236;2022-08-07T03:34:29;93455.88;;;20.82;96.57
11750;BME280;5932;42.656;23.236;2022-08-07T03:37:00;93430.91;;;20.65;96.36
11750;BME280;5932;42.656;23.236;2022-08-07T03:39:29;93457.66;;;20.85;96.12
11750;BME280;5932;42.656;23.236;2022-08-07T03:41:58;93452.34;;;20.81;97.35
11750;BME280;5932;42.656;23.236;2022-08-07T03:44:25;93464.66;;;20.86;96.67
11750;BME280;5932;42.656;23.236;2022-08-07T03:46:52;93464.66;;;20.86;98.01
11750;BME280;5932;42.656;23.236;2022-08-07T03:49:20;93470.72;;;20.90;97.35
11750;BME280;5932;42.656;23.236;2022-08-07T03:51:47;93478.78;;;20.93;96.81
11750;BME280;5932;42.656;23.236;2022-08-07T03:54:17;93486.94;;;21.02;96.51
11750;BME280;5932;42.656;23.236;2022-08-07T03:56:45;93495.28;;;21.08;96.58
11750;BME280;5932;42.656;23.236;2022-08-07T03:59:12;93503.66;;;21.19;95.01
11750;BME280;5932;42.656;23.236;2022-08-07T04:01:40;93503.22;;;21.26;95.45
11750;BME280;5932;42.656;23.236;2022-08-07T04:04:07;93502.06;;;21.33;93.49
11750;BME280;5932;42.656;23.236;2022-08-07T04:06:36;93496.34;;;21.36;92.06
11750;BME280;5932;42.656;23.236;2022-08-07T04:09:05;93520.78;;;21.49;92.09
11750;BME280;5932;42.656;23.236;2022-08-07T04:11:35;93512.84;;;21.56;90.20
11750;BME280;5932;42.656;23.236;2022-08-07T04:14:03;93515.59;;;21.56;90.01
11750;BME280;5932;42.656;23.236;2022-08-07T04:16:31;93503.84;;;21.61;88.95
11750;BME280;5932;42.656;23.236;2022-08-07T04:18:59;93492.63;;;21.65;90.42
11750;BME280;5932;42.656;23.236;2022-08-07T04:21:26;93494.19;;;21.71;91.70
11750;BME280;5932;42.656;23.236;2022-08-07T04:23:53;93478.28;;;21.35;93.09
11750;BME280;5932;42.656;23.236;2022-08-07T04:26:20;93499.97;;;21.48;93.69
11750;BME280;5932;42.656;23.236;2022-08-07T04:28:48;93501.44;;;21.43;94.31
11750;BME280;5932;42.656;23.236;2022-08-07T04:31:15;93508.72;;;21.46;94.78
11750;BME280;5932;42.656;23.236;2022-08-07T04:33:44;93513.81;;;21.53;94.48
11750;BME280;5932;42.656;23.236;2022-08-07T04:36:13;93510.69;;;21.66;94.80
11750;BME280;5932;42.656;23.236;2022-08-07T04:38:40;93512.75;;;21.71;95.22
11750;BME280;5932;42.656;23.236;2022-08-07T04:41:08;93527.53;;;21.73;93.02
11750;BME280;5932;42.656;23.236;2022-08-07T04:43:36;93530.03;;;21.71;94.27
11750;BME280;5932;42.656;23.236;2022-08-07T04:46:10;93532.78;;;21.71;94.01
11750;BME280;5932;42.656;23.236;2022-08-07T04:48:44;93531.59;;;21.78;94.02
11750;BME280;5932;42.656;23.236;2022-08-07T04:51:22;93535.25;;;21.89;94.31
11750;BME280;5932;42.656;23.236;2022-08-07T04:53:57;93529.25;;;21.91;94.10
11750;BME280;5932;42.656;23.236;2022-08-07T04:56:30;93538.00;;;21.89;95.39
11750;BME280;5932;42.656;23.236;2022-08-07T04:59:04;93537.06;;;21.72;96.66
11750;BME280;5932;42.656;23.236;2022-08-07T05:01:39;93529.22;;;21.65;97.93
11750;BME280;5932;42.656;23.236;2022-08-07T05:04:11;93537.22;;;21.63;98.89
11750;BME280;5932;42.656;23.236;2022-08-07T05:06:45;93540.13;;;21.54;99.49
11750;BME280;5932;42.656;23.236;2022-08-07T05:09:21;93541.84;;;21.52;100.00
11750;BME280;5932;42.656;23.236;2022-08-07T05:11:51;93547.22;;;21.61;98.08
11750;BME280;5932;42.656;23.236;2022-08-07T05:14:23;93542.88;;;21.74;98.62
11750;BME280;5932;42.656;23.236;2022-08-07T05:16:56;93555.56;;;21.86;91.89
11750;BME280;5932;42.656;23.236;2022-08-07T05:19:26;93553.38;;;21.96;88.17
11750;BME280;5932;42.656;23.236;2022-08-07T05:21:59;93547.41;;;22.03;87.61
11750;BME280;5932;42.656;23.236;2022-08-07T05:24:27;93549.25;;;22.11;90.18
11750;BME280;5932;42.656;23.236;2022-08-07T05:26:56;93558.47;;;22.34;89.58
11750;BME280;5932;42.656;23.236;2022-08-07T05:29:26;93558.34;;;22.49;87.57
11750;BME280;5932;42.656;23.236;2022-08-07T05:31:55;93550.94;;;22.60;84.77
11750;BME280;5932;42.656;23.236;2022-08-07T05:34:25;93563.66;;;22.83;83.48
11750;BME280;5932;42.656;23.236;2022-08-07T05:36:53;93558.19;;;22.94;84.23
11750;BME280;5932;42.656;23.236;2022-08-07T05:39:21;93568.53;;;23.05;80.68
11750;BME280;5932;42.656;23.236;2022-08-07T05:41:49;93556.75;;;23.10;80.33
11750;BME280;5932;42.656;23.236;2022-08-07T05:44:18;93560.03;;;23.14;80.70
11750;BME280;5932;42.656;23.236;2022-08-07T05:46:47;93570.72;;;23.32;80.84
11750;BME280;5932;42.656;23.236;2022-08-07T05:49:16;93578.28;;;23.37;79.47
11750;BME280;5932;42.656;23.236;2022-08-07T05:51:44;93579.59;;;23.47;79.30
11750;BME280;5932;42.656;23.236;2022-08-07T05:54:12;93583.38;;;23.55;79.63
11750;BME280;5932;42.656;23.236;2022-08-07T05:56:40;93597.22;;;23.61;78.87
11750;BME280;5932;42.656;23.236;2022-08-07T05:59:12;93603.31;;;23.70;78.19
11750;BME280;5932;42.656;23.236;2022-08-07T06:01:40;93603.31;;;23.76;77.04
11750;BME280;5932;42.656;23.236;2022-08-07T06:04:09;93607.88;;;23.84;75.75
11750;BME280;5932;42.656;23.236;2022-08-07T06:06:37;93603.38;;;23.93;75.99
11750;BME280;5932;42.656;23.236;2022-08-07T06:09:05;93608.41;;;23.94;74.66
11750;BME280;5932;42.656;23.236;2022-08-07T06:11:33;93606.94;;;23.99;74.49
11750;BME280;5932;42.656;23.236;2022-08-07T06:14:00;93605.66;;;24.00;74.10
11750;BME280;5932;42.656;23.236;2022-08-07T06:16:31;93616.50;;;24.03;75.14
11750;BME280;5932;42.656;23.236;2022-08-07T06:18:59;93609.22;;;24.06;75.62
11750;BME280;5932;42.656;23.236;2022-08-07T06:21:26;93610.75;;;24.12;74.71
11750;BME280;5932;42.656;23.236;2022-08-07T06:23:55;93612.25;;;24.19;73.97
11750;BME280;5932;42.656;23.236;2022-08-07T06:26:22;93609.53;;;24.24;75.10
11750;BME280;5932;42.656;23.236;2022-08-07T06:28:50;93608.78;;;24.29;73.14
11750;BME280;5932;42.656;23.236;2022-08-07T06:31:17;93606.00;;;24.29;72.63
11750;BME280;5932;42.656;23.236;2022-08-07T06:33:44;93606.00;;;24.35;73.19
11750;BME280;5932;42.656;23.236;2022-08-07T06:36:11;93608.03;;;24.51;73.81
11750;BME280;5932;42.656;23.236;2022-08-07T06:38:38;93607.31;;;24.61;71.68
11750;BME280;5932;42.656;23.236;2022-08-07T06:41:10;93605.53;;;24.69;69.58
11750;BME280;5932;42.656;23.236;2022-08-07T06:43:38;93603.06;;;24.77;70.11
11750;BME280;5932;42.656;23.236;2022-08-07T06:46:06;93601.03;;;24.89;69.56
11750;BME280;5932;42.656;23.236;2022-08-07T06:48:34;93602.28;;;25.04;67.19
11750;BME280;5932;42.656;23.236;2022-08-07T06:51:06;93606.50;;;25.16;66.09
11750;BME280;5932;42.656;23.236;2022-08-07T06:53:36;93606.53;;;25.22;65.13
11750;BME280;5932;42.656;23.236;2022-08-07T06:56:08;93599.69;;;25.28;66.43
11750;BME280;5932;42.656;23.236;2022-08-07T06:58:35;93588.34;;;25.43;66.16
11750;BME280;5932;42.656;23.236;2022-08-07T07:01:05;93600.16;;;25.54;64.93
11750;BME280;5932;42.656;23.236;2022-08-07T07:03:33;93600.91;;;25.49;64.25
11750;BME280;5932;42.656;23.236;2022-08-07T07:06:01;93599.66;;;25.50;63.96
11750;BME280;5932;42.656;23.236;2022-08-07T07:08:30;93606.69;;;25.51;62.92
11750;BME280;5932;42.656;23.236;2022-08-07T07:10:57;93602.13;;;25.59;63.84
11750;BME280;5932;42.656;23.236;2022-08-07T07:13:30;93610.69;;;25.73;63.70
11750;BME280;5932;42.656;23.236;2022-08-07T07:16:01;93603.31;;;25.81;61.43
11750;BME280;5932;42.656;23.236;2022-08-07T07:18:35;93609.09;;;25.88;62.17
11750;BME280;5932;42.656;23.236;2022-08-07T07:21:07;93606.03;;;25.97;61.61
11750;BME280;5932;42.656;23.236;2022-08-07T07:23:36;93599.69;;;26.02;60.71
11750;BME280;5932;42.656;23.236;2022-08-07T07:26:07;93611.25;;;26.12;59.80
11750;BME280;5932;42.656;23.236;2022-08-07T07:28:40;93591.88;;;26.06;59.03
11750;BME280;5932;42.656;23.236;2022-08-07T07:31:14;93616.28;;;26.19;57.67
11750;BME280;5932;42.656;23.236;2022-08-07T07:33:43;93616.81;;;26.12;58.65
11750;BME280;5932;42.656;23.236;2022-08-07T07:36:11;93605.91;;;26.25;59.72
11750;BME280;5932;42.656;23.236;2022-08-07T07:38:39;93596.06;;;26.24;57.54
11750;BME280;5932;42.656;23.236;2022-08-07T07:41:08;93617.69;;;26.36;58.52
11750;BME280;5932;42.656;23.236;2022-08-07T07:43:39;93604.50;;;26.48;57.55
11750;BME280;5932;42.656;23.236;2022-08-07T07:46:08;93610.53;;;26.52;57.24
11750;BME280;5932;42.656;23.236;2022-08-07T07:48:36;93613.25;;;26.58;56.41
11750;BME280;5932;42.656;23.236;2022-08-07T07:51:05;93623.34;;;26.61;55.74
11750;BME280;5932;42.656;23.236;2022-08-07T07:53:33;93616.22;;;26.71;56.33
11750;BME280;5932;42.656;23.236;2022-08-07T07:56:02;93610.13;;;26.72;55.09
11750;BME280;5932;42.656;23.236;2022-08-07T07:58:32;93612.13;;;26.77;54.77
11750;BME280;5932;42.656;23.236;2022-08-07T08:01:02;93622.19;;;26.86;53.53
11750;BME280;5932;42.656;23.236;2022-08-07T08:03:30;93617.13;;;26.84;52.68
11750;BME280;5932;42.656;23.236;2022-08-07T08:05:57;93618.34;;;26.89;52.43
11750;BME280;5932;42.656;23.236;2022-08-07T08:08:27;93616.56;;;26.91;52.57
11750;BME280;5932;42.656;23.236;2022-08-07T08:10:55;93623.38;;;26.90;51.92
11750;BME280;5932;42.656;23.236;2022-08-07T08:13:23;93626.09;;;27.01;52.58
11750;BME280;5932;42.656;23.236;2022-08-07T08:15:51;93632.81;;;27.11;51.86
11750;BME280;5932;42.656;23.236;2022-08-07T08:18:22;93633.03;;;27.13;52.58
11750;BME280;5932;42.656;23.236;2022-08-07T08:20:50;93632.78;;;27.17;53.14
11750;BME280;5932;42.656;23.236;2022-08-07T08:23:18;93626.56;;;27.29;52.82
11750;BME280;5932;42.656;23.236;2022-08-07T08:26:04;93632.75;;;27.47;53.91
11750;BME280;5932;42.656;23.236;2022-08-07T08:29:02;93632.19;;;27.54;52.11
11750;BME280;5932;42.656;23.236;2022-08-07T08:31:32;93634.91;;;27.59;51.76
11750;BME280;5932;42.656;23.236;2022-08-07T08:34:03;93632.75;;;27.71;50.62
11750;BME280;5932;42.656;23.236;2022-08-07T08:36:33;93623.34;;;27.74;51.54
11750;BME280;5932;42.656;23.236;2022-08-07T08:39:01;93624.88;;;27.93;50.41
11750;BME280;5932;42.656;23.236;2022-08-07T08:41:37;93625.28;;;28.03;51.17
11750;BME280;5932;42.656;23.236;2022-08-07T08:44:16;93624.03;;;28.04;51.46
11750;BME280;5932;42.656;23.236;2022-08-07T08:46:49;93627.56;;;28.23;49.43
11750;BME280;5932;42.656;23.236;2022-08-07T08:49:25;93647.31;;;28.25;49.36
11750;BME280;5932;42.656;23.236;2022-08-07T08:51:56;93635.41;;;28.25;48.73
11750;BME280;5932;42.656;23.236;2022-08-07T08:54:29;93636.84;;;28.31;49.02
11750;BME280;5932;42.656;23.236;2022-08-07T08:57:02;93634.28;;;28.33;48.86
11750;BME280;5932;42.656;23.236;2022-08-07T08:59:33;93633.00;;;28.34;48.55
11750;BME280;5932;42.656;23.236;2022-08-07T09:02:12;93637.00;;;28.39;49.17
11750;BME280;5932;42.656;23.236;2022-08-07T09:04:52;93638.50;;;28.58;48.27
11750;BME280;5932;42.656;23.236;2022-08-07T09:07:28;93631.06;;;28.66;48.28
11750;BME280;5932;42.656;23.236;2022-08-07T09:10:00;93629.19;;;28.87;47.81
11750;BME280;5932;42.656;23.236;2022-08-07T09:12:39;93631.53;;;28.83;48.36
11750;BME280;5932;42.656;23.236;2022-08-07T09:15:18;93633.06;;;28.84;47.83
11750;BME280;5932;42.656;23.236;2022-08-07T09:17:59;93632.72;;;28.75;46.73
11750;BME280;5932;42.656;23.236;2022-08-07T09:20:43;93621.84;;;28.71;47.39
11750;BME280;5932;42.656;23.236;2022-08-07T09:23:22;93620.84;;;28.87;48.12
11750;BME280;5932;42.656;23.236;2022-08-07T09:26:00;93620.94;;;29.14;46.69
11750;BME280;5932;42.656;23.236;2022-08-07T09:28:37;93621.31;;;29.36;46.88
11750;BME280;5932;42.656;23.236;2022-08-07T09:31:09;93622.19;;;29.57;46.18
11750;BME280;5932;42.656;23.236;2022-08-07T09:33:51;93614.78;;;29.47;44.85
11750;BME280;5932;42.656;23.236;2022-08-07T09:36:27;93620.19;;;29.13;46.18
11750;BME280;5932;42.656;23.236;2022-08-07T09:39:02;93616.13;;;28.95;45.81
11750;BME280;5932;42.656;23.236;2022-08-07T09:41:34;93614.72;;;28.89;45.42
11750;BME280;5932;42.656;23.236;2022-08-07T09:44:07;93617.47;;;28.76;45.94
11750;BME280;5932;42.656;23.236;2022-08-07T09:46:54;93614.78;;;28.70;46.15
11750;BME280;5932;42.656;23.236;2022-08-07T09:49:41;93607.75;;;28.64;45.76
11750;BME280;5932;42.656;23.236;2022-08-07T09:52:19;93613.47;;;28.53;46.73
11750;BME280;5932;42.656;23.236;2022-08-07T09:54:53;93611.38;;;28.40;47.03
11750;BME280;5932;42.656;23.236;2022-08-07T09:57:43;93609.38;;;28.22;47.05
11750;BME280;5932;42.656;23.236;2022-08-07T10:00:18;93601.59;;;28.15;46.57
11750;BME280;5932;42.656;23.236;2022-08-07T10:03:18;93597.53;;;28.35;46.26
11750;BME280;5932;42.656;23.236;2022-08-07T10:06:23;93588.38;;;28.71;47.80
11750;BME280;5932;42.656;23.236;2022-08-07T10:09:23;93597.63;;;28.79;46.17
11750;BME280;5932;42.656;23.236;2022-08-07T10:12:05;93581.47;;;28.91;45.77
11750;BME280;5932;42.656;23.236;2022-08-07T10:15:09;93589.84;;;29.23;44.56
11750;BME280;5932;42.656;23.236;2022-08-07T10:17:55;93584.44;;;29.12;44.51
11750;BME280;5932;42.656;23.236;2022-08-07T10:20:33;93581.41;;;28.96;43.55
11750;BME280;5932;42.656;23.236;2022-08-07T10:23:29;93585.81;;;29.05;43.69
11750;BME280;5932;42.656;23.236;2022-08-07T10:26:16;93593.72;;;29.01;43.59
11750;BME280;5932;42.656;23.236;2022-08-07T10:29:02;93594.25;;;28.86;42.88
11750;BME280;5932;42.656;23.236;2022-08-07T10:31:52;93590.72;;;28.67;43.95
11750;BME280;5932;42.656;23.236;2022-08-07T10:34:32;93596.25;;;28.54;44.56
11750;BME280;5932;42.656;23.236;2022-08-07T10:37:15;93587.88;;;28.54;45.17
11750;BME280;5932;42.656;23.236;2022-08-07T10:39:55;93594.72;;;28.53;45.08
11750;BME280;5932;42.656;23.236;2022-08-07T10:42:31;93604.09;;;28.37;45.07
11750;BME280;5932;42.656;23.236;2022-08-07T10:45:08;93603.84;;;28.35;44.62
11750;BME280;5932;42.656;23.236;2022-08-07T10:47:44;93589.25;;;28.48;45.39
11750;BME280;5932;42.656;23.236;2022-08-07T10:50:17;93592.38;;;28.76;46.04
11750;BME280;5932;42.656;23.236;2022-08-07T10:52:54;93595.03;;;29.00;45.75
11750;BME280;5932;42.656;23.236;2022-08-07T10:55:27;93589.25;;;29.11;45.84
11750;BME280;5932;42.656;23.236;2022-08-07T10:58:04;93590.19;;;29.00;45.29
11750;BME280;5932;42.656;23.236;2022-08-07T11:00:45;93592.19;;;28.87;45.26
11750;BME280;5932;42.656;23.236;2022-08-07T11:03:20;93591.56;;;28.62;45.13
11750;BME280;5932;42.656;23.236;2022-08-07T11:05:54;93592.31;;;28.44;45.00
11750;BME280;5932;42.656;23.236;2022-08-07T11:08:30;93589.47;;;28.31;45.71
11750;BME280;5932;42.656;23.236;2022-08-07T11:11:02;93593.69;;;28.19;46.11
11750;BME280;5932;42.656;23.236;2022-08-07T11:13:36;93585.34;;;28.19;46.68
11750;BME280;5932;42.656;23.236;2022-08-07T11:16:09;93593.00;;;28.13;46.85
11750;BME280;5932;42.656;23.236;2022-08-07T11:18:45;93598.13;;;28.09;46.60
11750;BME280;5932;42.656;23.236;2022-08-07T11:21:24;93599.41;;;28.08;46.69
11750;BME280;5932;42.656;23.236;2022-08-07T11:24:03;93588.13;;;28.19;46.07
11750;BME280;5932;42.656;23.236;2022-08-07T11:26:37;93579.59;;;28.49;46.09
11750;BME280;5932;42.656;23.236;2022-08-07T11:29:10;93578.66;;;28.78;46.27
11750;BME280;5932;42.656;23.236;2022-08-07T11:31:44;93569.28;;;29.07;47.16
11750;BME280;5932;42.656;23.236;2022-08-07T11:34:18;93570.53;;;29.25;46.15
11750;BME280;5932;42.656;23.236;2022-08-07T11:36:57;93565.38;;;29.29;46.34
11750;BME280;5932;42.656;23.236;2022-08-07T11:39:52;93568.28;;;29.36;45.37
11750;BME280;5932;42.656;23.236;2022-08-07T11:42:24;93567.94;;;29.40;44.52
11750;BME280;5932;42.656;23.236;2022-08-07T11:44:57;93574.72;;;29.57;44.34
11750;BME280;5932;42.656;23.236;2022-08-07T11:47:38;93570.13;;;29.60;43.16
11750;BME280;5932;42.656;23.236;2022-08-07T11:50:16;93579.16;;;29.53;43.75
11750;BME280;5932;42.656;23.236;2022-08-07T11:52:56;93586.53;;;29.63;43.77
11750;BME280;5932;42.656;23.236;2022-08-07T11:55:42;93587.31;;;29.77;43.56
11750;BME280;5932;42.656;23.236;2022-08-07T11:58:18;93594.09;;;29.81;43.21
11750;BME280;5932;42.656;23.236;2022-08-07T12:00:59;93565.69;;;29.51;42.78
11750;BME280;5932;42.656;23.236;2022-08-07T12:04:02;93592.00;;;29.69;42.31
11750;BME280;5932;42.656;23.236;2022-08-07T12:06:42;93591.38;;;29.89;43.92
11750;BME280;5932;42.656;23.236;2022-08-07T12:09:15;93598.44;;;30.16;43.88
11750;BME280;5932;42.656;23.236;2022-08-07T12:11:46;93594.78;;;30.34;43.22
11750;BME280;5932;42.656;23.236;2022-08-07T12:14:18;93586.91;;;30.66;43.69
11750;BME280;5932;42.656;23.236;2022-08-07T12:16:50;93594.00;;;31.01;42.61
11750;BME280;5932;42.656;23.236;2022-08-07T12:19:26;93581.16;;;31.06;42.34
11750;BME280;5932;42.656;23.236;2022-08-07T12:22:02;93587.28;;;31.25;42.48
11750;BME280;5932;42.656;23.236;2022-08-07T12:24:38;93581.69;;;31.45;41.97
11750;BME280;5932;42.656;23.236;2022-08-07T12:27:28;93585.94;;;31.39;42.48
11750;BME280;5932;42.656;23.236;2022-08-07T12:30:02;93582.66;;;31.48;42.15
11750;BME280;5932;42.656;23.236;2022-08-07T12:32:37;93591.28;;;31.37;41.30
11750;BME280;5932;42.656;23.236;2022-08-07T12:35:09;93581.88;;;31.27;41.46
11750;BME280;5932;42.656;23.236;2022-08-07T12:37:39;93577.41;;;31.24;41.90
11750;BME280;5932;42.656;23.236;2022-08-07T12:40:07;93575.88;;;31.23;41.29
11750;BME280;5932;42.656;23.236;2022-08-07T12:42:35;93568.28;;;31.31;41.99
11750;BME280;5932;42.656;23.236;2022-08-07T12:45:08;93564.13;;;31.45;41.34
11750;BME280;5932;42.656;23.236;2022-08-07T12:47:43;93563.25;;;31.50;40.21
11750;BME280;5932;42.656;23.236;2022-08-07T12:50:16;93561.13;;;31.71;39.04
11750;BME280;5932;42.656;23.236;2022-08-07T12:52:49;93568.81;;;31.78;39.24
11750;BME280;5932;42.656;23.236;2022-08-07T12:55:21;93567.47;;;31.72;39.02
11750;BME280;5932;42.656;23.236;2022-08-07T12:57:50;93571.75;;;31.65;39.63
11750;BME280;5932;42.656;23.236;2022-08-07T13:00:17;93566.53;;;31.69;38.53
11750;BME280;5932;42.656;23.236;2022-08-07T13:05:54;93562.03;;;31.66;38.33
11750;BME280;5932;42.656;23.236;2022-08-07T13:08:42;93564.91;;;31.04;38.22
11750;BME280;5932;42.656;23.236;2022-08-07T13:11:28;93568.88;;;30.88;39.05
11750;BME280;5932;42.656;23.236;2022-08-07T13:14:05;93578.59;;;30.53;39.41
11750;BME280;5932;42.656;23.236;2022-08-07T13:16:39;93566.69;;;30.40;39.81
11750;BME280;5932;42.656;23.236;2022-08-07T13:19:17;93563.84;;;30.06;40.22
11750;BME280;5932;42.656;23.236;2022-08-07T13:21:53;93561.09;;;29.93;41.00
11750;BME280;5932;42.656;23.236;2022-08-07T13:24:25;93548.59;;;29.94;40.18
11750;BME280;5932;42.656;23.236;2022-08-07T13:27:02;93544.75;;;29.97;40.75
11750;BME280;5932;42.656;23.236;2022-08-07T13:29:35;93555.97;;;30.31;39.54